createdAt,value
2019-02-24T00:01:36.436Z,53.47
2019-02-24T00:04:08.318Z,52.67
2019-02-24T00:06:38.819Z,57.07
2019-02-24T00:09:09.160Z,53.20
2019-02-24T00:11:39.905Z,60.13
2019-02-24T00:14:10.568Z,45.45
2019-02-24T00:16:41.504Z,52.43
2019-02-24T00:19:11.989Z,48.40
2019-02-24T00:21:42.937Z,45.23
2019-02-24T00:24:13.289Z,43.07
2019-02-24T00:26:43.713Z,45.07
2019-02-24T00:29:14.291Z,46.30
2019-02-24T00:31:44.690Z,47.78
2019-02-24T00:34:15.072Z,48.93
2019-02-24T00:36:45.621Z,50.07
2019-02-24T00:39:16.130Z,50.40
2019-02-24T00:41:46.874Z,48.50
2019-02-24T00:44:17.352Z,47.43
2019-02-24T00:46:47.705Z,46.30
2019-02-24T00:49:18.215Z,44.30
2019-02-24T00:51:48.758Z,46.40
2019-02-24T00:54:19.196Z,45.78
2019-02-24T00:56:49.632Z,47.00
2019-02-24T00:59:20.332Z,46.50
2019-02-24T01:01:51.873Z,45.93
2019-02-24T01:04:22.413Z,44.93
2019-02-24T01:06:53.037Z,45.73
2019-02-24T01:09:23.481Z,45.77
2019-02-24T01:11:53.973Z,44.80
2019-02-24T01:14:24.450Z,43.57
2019-02-24T01:16:55.458Z,44.50
2019-02-24T01:19:25.914Z,45.70
2019-02-24T01:21:56.379Z,43.00
2019-02-24T01:24:26.785Z,43.40
2019-02-24T01:26:57.289Z,43.03
2019-02-24T01:29:27.744Z,41.23
2019-02-24T01:31:58.152Z,41.60
2019-02-24T01:34:28.706Z,41.47
2019-02-24T01:36:59.142Z,42.33
2019-02-24T01:39:29.534Z,41.90
2019-02-24T01:41:59.938Z,45.00
2019-02-24T01:44:30.303Z,47.50
2019-02-24T01:47:00.827Z,47.15
2019-02-24T01:49:31.319Z,46.70
2019-02-24T01:52:01.721Z,47.48
2019-02-24T01:54:32.105Z,46.20
2019-02-24T01:57:02.562Z,46.70
2019-02-24T01:59:33.160Z,47.20
2019-02-24T02:02:04.323Z,43.13
2019-02-24T02:04:34.745Z,42.73
2019-02-24T02:07:05.855Z,44.15
2019-02-24T02:09:36.480Z,41.37
2019-02-24T02:12:08.583Z,43.10
2019-02-24T02:14:39.150Z,41.93
2019-02-24T02:17:09.504Z,42.17
2019-02-24T02:19:40.292Z,40.47
2019-02-24T02:22:10.903Z,38.73
2019-02-24T02:24:41.769Z,39.43
2019-02-24T02:27:12.205Z,40.03
2019-02-24T02:29:42.806Z,43.70
2019-02-24T02:32:13.411Z,42.03
2019-02-24T02:34:43.828Z,42.73
2019-02-24T02:37:14.234Z,40.30
2019-02-24T02:39:44.912Z,42.00
2019-02-24T02:42:15.299Z,38.90
2019-02-24T02:44:45.747Z,42.70
2019-02-24T02:47:16.146Z,42.60
2019-02-24T02:49:46.518Z,42.43
2019-02-24T02:52:16.941Z,39.98
2019-02-24T02:54:47.296Z,42.23
2019-02-24T02:57:18.037Z,40.55
2019-02-24T02:59:48.503Z,39.43
2019-02-24T03:02:24.472Z,40.35
2019-02-24T03:04:50.996Z,41.03
2019-02-24T03:07:25.793Z,41.48
2019-02-24T03:09:56.232Z,40.90
2019-02-24T03:12:26.724Z,40.60
2019-02-24T03:14:57.042Z,42.47
2019-02-24T03:17:27.973Z,43.60
2019-02-24T03:19:58.315Z,42.13
2019-02-24T03:22:28.748Z,43.10
2019-02-24T03:24:59.247Z,42.27
2019-02-24T03:27:29.735Z,43.07
2019-02-24T03:30:00.317Z,42.37
2019-02-24T03:32:31.681Z,43.63
2019-02-24T03:35:02.212Z,44.63
2019-02-24T03:37:33.330Z,42.67
2019-02-24T03:40:03.914Z,42.95
2019-02-24T03:42:34.351Z,42.93
2019-02-24T03:45:04.807Z,41.40
2019-02-24T03:47:35.232Z,41.27
2019-02-24T03:50:06.215Z,42.38
2019-02-24T03:52:36.652Z,38.27
2019-02-24T03:55:07.085Z,39.70
2019-02-24T03:57:37.826Z,39.43
2019-02-24T04:00:08.405Z,41.10
2019-02-24T04:02:38.813Z,41.20
2019-02-24T04:05:09.383Z,41.50
2019-02-24T04:07:39.781Z,43.20
2019-02-24T04:10:10.234Z,44.65
2019-02-24T04:12:40.864Z,43.78
2019-02-24T04:15:11.280Z,44.03
2019-02-24T04:17:41.643Z,44.00
2019-02-24T04:20:12.179Z,45.40
2019-02-24T04:22:43.660Z,43.40
2019-02-24T04:25:14.140Z,42.73
2019-02-24T04:27:44.771Z,44.17
2019-02-24T04:30:15.200Z,40.12
2019-02-24T04:32:45.559Z,40.67
2019-02-24T04:35:16.069Z,38.77
2019-02-24T04:37:46.504Z,40.50
2019-02-24T04:40:16.972Z,34.58
2019-02-24T04:42:47.309Z,36.63
2019-02-24T04:45:17.733Z,35.45
2019-02-24T04:47:48.407Z,37.17
2019-02-24T04:50:19.087Z,34.92
2019-02-24T04:52:49.534Z,34.80
2019-02-24T04:55:19.971Z,34.73
2019-02-24T04:57:50.400Z,31.15
2019-02-24T05:00:20.905Z,32.23
2019-02-24T05:02:51.514Z,32.43
2019-02-24T05:05:22.403Z,32.73
2019-02-24T05:07:52.952Z,33.53
2019-02-24T05:10:24.461Z,30.67
2019-02-24T05:12:55.251Z,31.37
2019-02-24T05:15:25.772Z,32.20
2019-02-24T05:17:56.256Z,31.03
2019-02-24T05:20:27.677Z,31.53
2019-02-24T05:22:58.136Z,30.60
2019-02-24T05:25:28.662Z,31.00
2019-02-24T05:27:59.247Z,32.87
2019-02-24T05:30:30.437Z,31.73
2019-02-24T05:33:01.280Z,32.23
2019-02-24T05:35:31.724Z,30.77
2019-02-24T05:38:02.216Z,33.00
2019-02-24T05:40:32.573Z,30.90
2019-02-24T05:43:03.308Z,32.40
2019-02-24T05:45:33.905Z,32.90
2019-02-24T05:48:04.651Z,32.80
2019-02-24T05:50:35.074Z,32.30
2019-02-24T05:53:05.871Z,34.20
2019-02-24T05:55:36.293Z,34.00
2019-02-24T05:58:06.691Z,38.35
2019-02-24T06:00:37.325Z,41.13
2019-02-24T06:03:07.736Z,43.37
2019-02-24T06:05:38.145Z,41.67
2019-02-24T06:08:08.619Z,45.30
2019-02-24T06:10:39.008Z,48.93
2019-02-24T06:13:09.521Z,52.23
2019-02-24T06:15:39.986Z,56.40
2019-02-24T06:18:10.642Z,58.80
2019-02-24T06:20:40.989Z,61.13
2019-02-24T06:23:11.463Z,62.20
2019-02-24T06:25:41.859Z,66.83
2019-02-24T06:28:12.337Z,60.47
2019-02-24T06:30:42.906Z,68.23
2019-02-24T06:33:13.584Z,68.05
2019-02-24T06:35:44.284Z,68.73
2019-02-24T06:38:14.724Z,66.67
2019-02-24T06:40:45.142Z,63.83
2019-02-24T06:43:15.548Z,63.10
2019-02-24T06:45:46.255Z,63.73
2019-02-24T06:48:16.695Z,62.77
2019-02-24T06:51:11.974Z,62.20
2019-02-24T06:53:42.359Z,64.00
2019-02-24T06:56:12.728Z,61.05
2019-02-24T06:58:43.283Z,62.43
2019-02-24T07:01:13.772Z,59.58
2019-02-24T07:03:44.269Z,59.13
2019-02-24T07:06:14.723Z,55.73
2019-02-24T07:08:45.366Z,53.93
2019-02-24T07:11:15.793Z,56.13
2019-02-24T07:13:46.464Z,56.03
2019-02-24T07:16:16.982Z,54.20
2019-02-24T07:18:47.453Z,55.90
2019-02-24T07:21:18.053Z,55.33
2019-02-24T07:23:48.487Z,53.17
2019-02-24T07:26:18.909Z,57.17
2019-02-24T07:28:49.223Z,59.10
2019-02-24T07:31:19.741Z,60.57
2019-02-24T07:33:50.233Z,58.67
2019-02-24T07:36:21.822Z,62.20
2019-02-24T07:38:52.614Z,65.00
2019-02-24T07:41:23.045Z,60.05
2019-02-24T07:43:53.829Z,62.57
2019-02-24T07:46:24.535Z,59.43
2019-02-24T07:48:55.009Z,58.40
2019-02-24T07:51:25.492Z,59.33
2019-02-24T07:53:55.918Z,58.27
2019-02-24T07:56:26.260Z,58.13
2019-02-24T07:58:56.649Z,58.10
2019-02-24T08:01:27.130Z,56.47
2019-02-24T08:03:57.827Z,53.87
2019-02-24T08:06:28.319Z,52.97
2019-02-24T08:08:58.751Z,52.55
2019-02-24T08:11:29.238Z,50.80
2019-02-24T08:14:00.389Z,52.67
2019-02-24T08:16:30.864Z,51.57
2019-02-24T08:19:01.448Z,52.67
2019-02-24T08:21:31.938Z,52.43
2019-02-24T08:24:02.380Z,52.40
2019-02-24T08:26:32.818Z,50.52
2019-02-24T08:29:04.388Z,50.23
2019-02-24T08:31:34.969Z,50.20
2019-02-24T08:34:05.872Z,48.90
2019-02-24T08:36:36.354Z,47.80
2019-02-24T08:39:07.091Z,47.00
2019-02-24T08:41:37.711Z,44.87
2019-02-24T08:44:08.279Z,42.63
2019-02-24T08:46:39.008Z,45.77
2019-02-24T08:49:09.528Z,43.97
2019-02-24T08:51:40.093Z,42.93
2019-02-24T08:54:10.856Z,42.67
2019-02-24T08:56:41.344Z,39.53
2019-02-24T08:59:11.813Z,38.93
2019-02-24T09:01:42.249Z,36.67
2019-02-24T09:04:12.903Z,35.40
2019-02-24T09:06:43.384Z,35.40
2019-02-24T09:09:13.933Z,34.80
2019-02-24T09:11:44.450Z,33.13
2019-02-24T09:14:14.837Z,35.30
2019-02-24T09:16:45.292Z,34.20
2019-02-24T09:19:16.635Z,35.38
2019-02-24T09:21:47.175Z,35.93
2019-02-24T09:24:17.557Z,36.80
2019-02-24T09:26:48.277Z,35.20
2019-02-24T09:29:18.896Z,35.47
2019-02-24T09:31:49.324Z,35.27
2019-02-24T09:34:19.725Z,35.17
2019-02-24T09:36:50.511Z,36.90
2019-02-24T09:39:20.836Z,35.30
2019-02-24T09:41:51.235Z,35.60
2019-02-24T09:44:21.866Z,37.78
2019-02-24T09:46:52.574Z,40.17
2019-02-24T09:49:23.034Z,37.47
2019-02-24T09:51:53.491Z,39.23
2019-02-24T09:54:23.916Z,40.07
2019-02-24T09:56:54.399Z,42.13
2019-02-24T09:59:24.846Z,41.47
2019-02-24T10:01:55.563Z,41.33
2019-02-24T10:04:25.893Z,42.07
2019-02-24T10:06:56.309Z,41.03
2019-02-24T10:09:26.819Z,40.17
2019-02-24T10:11:57.287Z,42.57
2019-02-24T10:14:28.030Z,40.17
2019-02-24T10:16:58.497Z,41.67
2019-02-24T10:19:31.146Z,39.90
2019-02-24T10:22:01.338Z,40.13
2019-02-24T10:24:31.760Z,40.75
2019-02-24T10:27:02.280Z,39.97
2019-02-24T10:29:33.666Z,38.80
2019-02-24T10:32:04.246Z,40.30
2019-02-24T10:34:34.665Z,39.27
2019-02-24T10:37:05.746Z,37.55
2019-02-24T10:39:36.116Z,37.10
2019-02-24T10:42:06.481Z,37.30
2019-02-24T10:44:36.892Z,36.27
2019-02-24T10:47:07.386Z,37.83
2019-02-24T10:49:37.891Z,37.30
2019-02-24T10:52:08.530Z,35.57
2019-02-24T10:54:39.006Z,35.10
2019-02-24T10:57:12.846Z,37.33
2019-02-24T10:59:41.934Z,37.00
2019-02-24T11:02:12.404Z,35.23
2019-02-24T11:04:42.943Z,34.57
2019-02-24T11:07:13.351Z,34.95
2019-02-24T11:09:43.937Z,34.87
2019-02-24T11:12:14.623Z,35.08
2019-02-24T11:14:45.035Z,34.63
2019-02-24T11:17:16.405Z,33.92
2019-02-24T11:19:47.066Z,34.03
2019-02-24T11:22:17.897Z,33.20
2019-02-24T11:24:48.357Z,34.23
2019-02-24T11:27:18.867Z,35.10
2019-02-24T11:29:49.496Z,33.40
2019-02-24T11:32:19.895Z,32.80
2019-02-24T11:34:50.634Z,33.60
2019-02-24T11:37:21.273Z,32.42
2019-02-24T11:39:51.695Z,32.07
2019-02-24T11:42:22.167Z,31.57
2019-02-24T11:44:52.575Z,31.53
2019-02-24T11:47:22.993Z,30.75
2019-02-24T11:49:53.466Z,30.70
2019-02-24T11:52:23.914Z,30.03
2019-02-24T11:54:54.388Z,29.53
2019-02-24T11:57:25.504Z,29.82
2019-02-24T11:59:56.055Z,29.17
2019-02-24T12:02:34.187Z,28.83
2019-02-24T12:04:58.656Z,27.87
2019-02-24T12:07:29.087Z,27.40
2019-02-24T12:09:59.704Z,28.10
2019-02-24T12:12:31.146Z,28.80
2019-02-24T12:15:01.614Z,28.90
2019-02-24T12:17:32.471Z,30.47
2019-02-24T12:20:03.200Z,28.50
2019-02-24T12:22:33.967Z,28.80
2019-02-24T12:25:05.211Z,28.87
2019-02-24T12:27:35.727Z,30.53
2019-02-24T12:30:07.621Z,30.87
2019-02-24T12:32:38.199Z,30.03
2019-02-24T12:35:08.884Z,30.60
2019-02-24T12:37:39.233Z,31.63
2019-02-24T12:40:09.796Z,30.97
2019-02-24T12:42:40.176Z,31.17
2019-02-24T12:45:10.570Z,32.53
2019-02-24T12:47:41.057Z,33.33
2019-02-24T12:50:11.581Z,34.33
2019-02-24T12:52:42.103Z,34.33
2019-02-24T12:55:12.669Z,33.40
2019-02-24T12:57:43.201Z,33.47
2019-02-24T13:00:16.778Z,33.65
2019-02-24T13:02:47.184Z,33.77
2019-02-24T13:05:17.837Z,35.30
2019-02-24T13:07:48.161Z,36.70
2019-02-24T13:10:18.590Z,34.80
2019-02-24T13:12:48.956Z,33.93
2019-02-24T13:15:19.742Z,34.90
2019-02-24T13:17:51.237Z,33.93
2019-02-24T13:20:21.867Z,33.58
2019-02-24T13:22:52.327Z,32.97
2019-02-24T13:25:22.799Z,34.95
2019-02-24T13:27:54.299Z,33.20
2019-02-24T13:30:25.335Z,33.92
2019-02-24T13:32:55.824Z,34.83
2019-02-24T13:35:26.246Z,31.33
2019-02-24T13:37:56.660Z,32.83
2019-02-24T13:40:27.129Z,34.03
2019-02-24T13:42:57.621Z,33.50
2019-02-24T13:45:28.913Z,34.17
2019-02-24T13:48:00.348Z,33.33
2019-02-24T13:50:30.972Z,33.57
2019-02-24T13:53:01.547Z,34.77
2019-02-24T13:55:32.246Z,33.90
2019-02-24T13:58:02.874Z,33.53
2019-02-24T14:00:33.521Z,35.03
2019-02-24T14:03:06.083Z,34.90
2019-02-24T14:05:36.478Z,35.97
2019-02-24T14:08:06.949Z,35.87
2019-02-24T14:10:37.607Z,36.00
2019-02-24T14:13:07.964Z,35.85
2019-02-24T14:15:38.364Z,35.27
2019-02-24T14:18:08.716Z,35.63
2019-02-24T14:20:39.244Z,34.70
2019-02-24T14:23:09.594Z,36.35
2019-02-24T14:25:39.957Z,37.30
2019-02-24T14:28:10.345Z,37.97
2019-02-24T14:30:40.808Z,37.57
2019-02-24T14:33:12.346Z,36.13
2019-02-24T14:35:42.872Z,36.73
2019-02-24T14:38:13.291Z,36.00
2019-02-24T14:40:44.096Z,35.53
2019-02-24T14:43:14.670Z,37.08
2019-02-24T14:45:49.612Z,36.20
2019-02-24T14:48:17.345Z,35.20
2019-02-24T14:50:48.028Z,37.73
2019-02-24T14:53:18.776Z,36.55
2019-02-24T14:55:49.179Z,37.40
2019-02-24T14:58:19.596Z,37.20
2019-02-24T15:00:50.051Z,37.30
2019-02-24T15:03:20.596Z,37.63
2019-02-24T15:05:51.137Z,37.93
2019-02-24T15:08:23.267Z,37.27
2019-02-24T15:10:53.736Z,37.03
2019-02-24T15:13:24.254Z,39.63
2019-02-24T15:15:54.666Z,37.73
2019-02-24T15:18:25.047Z,38.03
2019-02-24T15:20:55.503Z,36.53
2019-02-24T15:23:25.968Z,39.80
2019-02-24T15:25:56.398Z,36.70
2019-02-24T15:28:26.964Z,38.27
2019-02-24T15:30:57.562Z,40.63
2019-02-24T15:33:28.063Z,38.17
2019-02-24T15:35:58.689Z,38.50
2019-02-24T15:38:29.275Z,38.20
2019-02-24T15:40:59.669Z,38.98
2019-02-24T15:43:30.287Z,40.40
2019-02-24T15:46:00.849Z,38.23
2019-02-24T15:48:31.254Z,37.23
2019-02-24T15:51:01.846Z,37.43
2019-02-24T15:53:32.482Z,36.67
2019-02-24T15:56:03.847Z,35.53
2019-02-24T15:58:34.489Z,35.40
2019-02-24T16:01:06.596Z,35.98
2019-02-24T16:03:37.207Z,35.87
2019-02-24T16:06:07.726Z,34.70
2019-02-24T16:08:38.347Z,36.43
2019-02-24T16:11:08.808Z,36.00
2019-02-24T16:13:39.346Z,36.50
2019-02-24T16:16:09.812Z,35.67
2019-02-24T16:18:41.654Z,37.20
2019-02-24T16:21:12.181Z,37.28
2019-02-24T16:23:42.643Z,37.13
2019-02-24T16:26:13.029Z,36.88
2019-02-24T16:28:43.484Z,38.43
2019-02-24T16:31:13.912Z,40.63
2019-02-24T16:33:44.382Z,40.90
2019-02-24T16:36:15.438Z,42.88
2019-02-24T16:38:46.037Z,41.20
2019-02-24T16:41:16.431Z,40.50
2019-02-24T16:43:46.869Z,42.30
2019-02-24T16:46:17.322Z,42.93
2019-02-24T16:48:47.750Z,44.43
2019-02-24T16:51:18.230Z,44.18
2019-02-24T16:53:48.606Z,45.50
2019-02-24T16:56:19.085Z,45.67
2019-02-24T16:58:49.507Z,43.43
2019-02-24T17:01:20.163Z,46.03
2019-02-24T17:03:50.723Z,42.67
2019-02-24T17:06:21.204Z,46.60
2019-02-24T17:09:00.634Z,45.00
2019-02-24T17:11:32.444Z,47.50
2019-02-24T17:14:02.830Z,47.30
2019-02-24T17:16:33.746Z,45.98
2019-02-24T17:19:04.128Z,45.53
2019-02-24T17:21:34.501Z,48.80
2019-02-24T17:24:05.732Z,46.15
2019-02-24T17:26:36.273Z,47.23
2019-02-24T17:29:06.642Z,48.77
2019-02-24T17:31:37.082Z,47.93
2019-02-24T17:34:07.439Z,45.97
2019-02-24T17:36:37.865Z,49.00
2019-02-24T17:39:08.306Z,46.40
2019-02-24T17:41:40.361Z,46.50
2019-02-24T17:44:10.733Z,47.50
2019-02-24T17:46:41.313Z,46.93
2019-02-24T17:49:11.760Z,47.57
2019-02-24T17:51:44.693Z,47.63
2019-02-24T17:54:15.074Z,47.77
2019-02-24T17:56:45.550Z,47.33
2019-02-24T17:59:15.928Z,47.60
2019-02-24T18:01:46.444Z,47.43
2019-02-24T18:04:16.874Z,47.13
2019-02-24T18:06:48.257Z,48.37
2019-02-24T18:09:18.697Z,47.67
2019-02-24T18:11:49.093Z,47.07
2019-02-24T18:14:19.515Z,49.03
2019-02-24T18:16:49.947Z,46.57
2019-02-24T18:19:20.414Z,48.53
2019-02-24T18:21:50.789Z,44.20
2019-02-24T18:24:21.233Z,47.13
2019-02-24T18:26:51.792Z,45.70
2019-02-24T18:29:22.350Z,45.65
2019-02-24T18:31:52.858Z,45.93
2019-02-24T18:34:23.188Z,44.98
2019-02-24T18:36:53.556Z,46.07
2019-02-24T18:39:24.298Z,45.00
2019-02-24T18:41:54.713Z,45.90
2019-02-24T18:44:26.187Z,43.43
2019-02-24T18:46:56.711Z,43.73
2019-02-24T18:49:27.111Z,41.10
2019-02-24T18:51:57.468Z,43.80
2019-02-24T18:54:34.573Z,44.67
2019-02-24T18:56:59.904Z,44.90
2019-02-24T18:59:30.330Z,44.03
2019-02-24T19:02:00.959Z,43.13
2019-02-24T19:04:31.345Z,44.43
2019-02-24T19:07:01.808Z,44.73
2019-02-24T19:09:32.524Z,44.93
2019-02-24T19:12:02.863Z,44.00
2019-02-24T19:14:33.259Z,44.50
2019-02-24T19:17:03.778Z,46.67
2019-02-24T19:19:35.198Z,44.40
2019-02-24T19:22:07.241Z,46.18
2019-02-24T19:24:37.743Z,45.10
2019-02-24T19:27:08.212Z,45.20
2019-02-24T19:29:38.674Z,47.03
2019-02-24T19:32:09.084Z,47.67
2019-02-24T19:34:39.542Z,45.63
2019-02-24T19:37:09.980Z,46.50
2019-02-24T19:39:40.424Z,45.83
2019-02-24T19:42:10.846Z,46.85
2019-02-24T19:44:41.243Z,47.20
2019-02-24T19:47:11.769Z,47.67
2019-02-24T19:49:42.235Z,47.87
2019-02-24T19:52:12.698Z,45.87
2019-02-24T19:54:43.106Z,46.90
2019-02-24T19:57:13.587Z,46.53
2019-02-24T19:59:43.981Z,45.87
2019-02-24T20:02:14.450Z,44.18
2019-02-24T20:04:44.785Z,46.10
2019-02-24T20:07:15.231Z,44.93
2019-02-24T20:09:45.677Z,45.33
2019-02-24T20:12:17.138Z,44.27
2019-02-24T20:14:47.530Z,44.83
2019-02-24T20:17:18.056Z,44.95
2019-02-24T20:19:48.532Z,45.28
2019-02-24T20:22:18.963Z,43.80
2019-02-24T20:24:49.341Z,43.43
2019-02-24T20:27:20.701Z,44.30
2019-02-24T20:29:51.350Z,43.93
2019-02-24T20:32:21.840Z,44.42
2019-02-24T20:34:52.348Z,44.23
2019-02-24T20:37:22.772Z,44.30
2019-02-24T20:39:53.279Z,42.60
2019-02-24T20:42:23.696Z,43.42
2019-02-24T20:44:54.071Z,43.43
2019-02-24T20:47:24.509Z,41.70
2019-02-24T20:49:55.034Z,45.70
2019-02-24T20:52:25.432Z,44.80
2019-02-24T20:54:55.815Z,43.90
2019-02-24T20:57:26.247Z,41.17
2019-02-24T20:59:56.691Z,42.88
2019-02-24T21:02:27.119Z,44.70
2019-02-24T21:04:58.468Z,44.70
2019-02-24T21:07:28.832Z,44.03
2019-02-24T21:09:59.226Z,45.47
2019-02-24T21:12:29.623Z,44.23
2019-02-24T21:15:00.037Z,44.07
2019-02-24T21:17:30.381Z,43.23
2019-02-24T21:20:00.925Z,43.33
2019-02-24T21:22:31.425Z,42.83
2019-02-24T21:25:01.903Z,42.13
2019-02-24T21:27:32.390Z,42.83
2019-02-24T21:30:03.078Z,43.87
2019-02-24T21:32:33.596Z,41.40
2019-02-24T21:35:04.170Z,45.10
2019-02-24T21:37:35.637Z,45.40
2019-02-24T21:40:06.706Z,45.20
2019-02-24T21:42:37.163Z,45.03
2019-02-24T21:45:10.795Z,45.57
2019-02-24T21:47:41.386Z,44.97
2019-02-24T21:50:12.863Z,44.65
2019-02-24T21:52:43.594Z,45.00
2019-02-24T21:55:14.236Z,44.97
2019-02-24T21:57:44.787Z,45.47
2019-02-24T22:00:17.277Z,45.87
2019-02-24T22:02:47.761Z,46.67
2019-02-24T22:05:18.354Z,46.18
2019-02-24T22:07:48.787Z,42.15
2019-02-24T22:10:19.120Z,45.15
2019-02-24T22:12:49.493Z,46.47
2019-02-24T22:15:20.258Z,47.13
2019-02-24T22:17:50.669Z,46.53
2019-02-24T22:20:21.146Z,45.50
2019-02-24T22:22:51.498Z,45.23
2019-02-24T22:25:21.960Z,47.35
2019-02-24T22:27:52.344Z,46.83
2019-02-24T22:30:22.704Z,47.15
2019-02-24T22:32:53.347Z,47.93
2019-02-24T22:35:23.845Z,46.87
2019-02-24T22:37:54.255Z,45.50
2019-02-24T22:40:24.695Z,43.53
2019-02-24T22:42:55.126Z,44.83
2019-02-24T22:45:25.631Z,44.97
2019-02-24T22:47:56.077Z,45.73
2019-02-24T22:50:26.566Z,46.23
2019-02-24T22:52:57.045Z,46.10
2019-02-24T22:55:28.371Z,45.83
2019-02-24T22:57:58.739Z,44.47
2019-02-24T23:01:18.221Z,45.63
2019-02-24T23:03:49.523Z,46.60
2019-02-24T23:06:19.963Z,46.13
2019-02-24T23:08:50.560Z,45.73
2019-02-24T23:11:21.040Z,46.47
2019-02-24T23:13:51.362Z,47.30
2019-02-24T23:16:21.737Z,47.43
2019-02-24T23:18:52.323Z,49.33
2019-02-24T23:21:23.867Z,48.23
2019-02-24T23:23:54.343Z,51.47
2019-02-24T23:26:24.769Z,57.70
2019-02-24T23:28:55.253Z,59.50
2019-02-24T23:31:25.771Z,54.10
2019-02-24T23:33:57.157Z,52.50
2019-02-24T23:36:27.669Z,49.80
2019-02-24T23:38:58.235Z,52.73
2019-02-24T23:41:28.690Z,54.48
2019-02-24T23:43:59.102Z,57.73
2019-02-24T23:46:29.578Z,54.47
2019-02-24T23:49:00.964Z,57.33
2019-02-24T23:51:31.376Z,49.60
2019-02-24T23:54:01.751Z,51.13
2019-02-24T23:56:32.194Z,47.83
2019-02-24T23:59:02.597Z,46.17
